Time;durP1;ratioP1;P1;durP2;ratioP2;P2;SDS_P1;SDS_P2;PMS_P1;PMS_P2;Temp;Humidity;BMP_temperature;BMP_pressure;BME280_temperature;BME280_humidity;BME280_pressure;Samples;Min_cycle;Max_cycle;Signal;HPM_P1;HPM_P2
2022/03/02 00:01:43;;;;;;;;;;;6.80;99.90;;;;;;5094119;28;19947;-58
2022/03/02 00:04:08;;;;;;;;;;;6.80;99.90;;;;;;5094098;28;19916;-57
2022/03/02 00:06:34;;;;;;;;;;;6.80;99.90;;;;;;5093574;28;19908;-56
2022/03/02 00:08:59;;;;;;;;;;;6.70;99.90;;;;;;5090235;28;19912;-57
2022/03/02 00:11:27;;;;;;;;;;;6.70;99.90;;;;;;5073896;28;19915;-57
2022/03/02 00:13:53;;;;;;;;;;;6.70;99.90;;;;;;5073204;28;19944;-57
2022/03/02 00:16:19;;;;;;;;;;;6.70;99.90;;;;;;5088838;28;19912;-57
2022/03/02 00:18:45;;;;;;;;;;;6.60;99.90;;;;;;5092339;28;19977;-57
2022/03/02 00:21:11;;;;;;;;;;;6.60;99.90;;;;;;5073137;28;19908;-57
2022/03/02 00:23:36;;;;;;;;;;;6.60;99.90;;;;;;5073758;28;20252;-57
2022/03/02 00:26:02;;;;;;;;;;;6.60;99.90;;;;;;5073626;28;19908;-57
2022/03/02 00:28:28;;;;;;;;;;;6.60;99.90;;;;;;5073166;28;20026;-57
2022/03/02 00:30:53;;;;;;;;;;;6.60;99.90;;;;;;5091576;28;20366;-57
2022/03/02 00:33:19;;;;;;;;;;;6.60;99.90;;;;;;5092699;28;20347;-57
2022/03/02 00:35:44;;;;;;;;;;;6.60;99.90;;;;;;5093642;28;19909;-58
2022/03/02 00:38:10;;;;;;;;;;;6.60;99.90;;;;;;5084075;28;20394;-57
2022/03/02 00:40:37;;;;;;;;;;;6.60;99.90;;;;;;5072949;28;19922;-57
2022/03/02 00:43:03;;;;;;;;;;;6.60;99.90;;;;;;5073387;28;19916;-57
2022/03/02 00:45:29;;;;;;;;;;;6.50;99.90;;;;;;5073367;28;19909;-57
2022/03/02 00:47:54;;;;;;;;;;;6.50;99.90;;;;;;5074991;28;20252;-57
2022/03/02 00:50:20;;;;;;;;;;;6.50;99.90;;;;;;5073419;28;20229;-58
2022/03/02 00:52:46;;;;;;;;;;;6.50;99.90;;;;;;5073391;28;20008;-57
2022/03/02 00:55:11;;;;;;;;;;;6.50;99.90;;;;;;5072890;28;19919;-57
2022/03/02 00:57:37;;;;;;;;;;;6.40;99.90;;;;;;5077302;28;19912;-57
2022/03/02 01:00:03;;;;;;;;;;;6.50;99.90;;;;;;5093403;28;20256;-58
2022/03/02 01:02:29;;;;;;;;;;;6.50;99.90;;;;;;5092923;28;20007;-57
2022/03/02 01:04:54;;;;;;;;;;;6.40;99.90;;;;;;5093373;28;19940;-56
2022/03/02 01:07:20;;;;;;;;;;;6.50;99.90;;;;;;5091496;28;19912;-57
2022/03/02 01:09:45;;;;;;;;;;;6.50;99.90;;;;;;5092924;28;19928;-57
2022/03/02 01:12:11;;;;;;;;;;;6.50;99.90;;;;;;5093323;28;20410;-57
2022/03/02 01:14:36;;;;;;;;;;;6.50;99.90;;;;;;5093271;28;20279;-57
2022/03/02 01:17:02;;;;;;;;;;;6.40;99.90;;;;;;5090931;28;20270;-57
2022/03/02 01:19:28;;;;;;;;;;;6.40;99.90;;;;;;5073095;28;19979;-57
2022/03/02 01:21:53;;;;;;;;;;;6.40;99.90;;;;;;5073162;28;19908;-58
2022/03/02 01:24:18;;;;;;;;;;;6.40;99.90;;;;;;5072642;28;19977;-57
2022/03/02 01:26:46;;;;;;;;;;;6.40;99.90;;;;;;5073093;28;19908;-57
2022/03/02 01:29:11;;;;;;;;;;;6.40;99.90;;;;;;5091851;28;20489;-57
2022/03/02 01:31:37;;;;;;;;;;;6.40;99.90;;;;;;5092668;28;19920;-57
2022/03/02 01:34:02;;;;;;;;;;;6.40;99.90;;;;;;5093163;28;19966;-58
2022/03/02 01:36:28;;;;;;;;;;;6.40;99.90;;;;;;5092650;28;19915;-58
2022/03/02 01:38:53;;;;;;;;;;;6.40;99.90;;;;;;5076127;28;19916;-57
2022/03/02 01:41:21;;;;;;;;;;;6.30;99.90;;;;;;5073984;28;19940;-57
2022/03/02 01:43:47;;;;;;;;;;;6.30;99.90;;;;;;5092529;28;19916;-58
2022/03/02 01:46:13;;;;;;;;;;;6.30;99.90;;;;;;5095687;28;19912;-57
2022/03/02 01:48:39;;;;;;;;;;;6.30;99.90;;;;;;5079965;28;19919;-57
2022/03/02 01:51:04;;;;;;;;;;;6.30;99.90;;;;;;5075996;28;19999;-57
2022/03/02 01:53:31;;;;;;;;;;;6.30;99.90;;;;;;5076434;28;19999;-58
2022/03/02 01:55:57;;;;;;;;;;;6.30;99.90;;;;;;5076463;28;19912;-57
2022/03/02 01:58:23;;;;;;;;;;;6.30;99.90;;;;;;5087727;28;19912;-57
2022/03/02 02:00:48;;;;;;;;;;;6.30;99.90;;;;;;5096480;28;20358;-58
2022/03/02 02:03:14;;;;;;;;;;;6.20;99.90;;;;;;5096477;28;19912;-57
2022/03/02 02:05:39;;;;;;;;;;;6.20;99.90;;;;;;5096026;28;19912;-57
2022/03/02 02:08:05;;;;;;;;;;;6.20;99.90;;;;;;5082129;28;20054;-57
2022/03/02 02:10:30;;;;;;;;;;;6.20;99.90;;;;;;5076212;28;19912;-57
2022/03/02 02:12:56;;;;;;;;;;;6.10;99.90;;;;;;5075651;28;20386;-57
2022/03/02 02:15:21;;;;;;;;;;;6.10;99.90;;;;;;5076065;28;19919;-57
2022/03/02 02:17:47;;;;;;;;;;;6.00;99.90;;;;;;5085983;28;19919;-57
2022/03/02 02:20:12;;;;;;;;;;;6.00;99.90;;;;;;5093883;28;19930;-57
2022/03/02 02:22:38;;;;;;;;;;;6.00;99.90;;;;;;5096269;28;19915;-57
2022/03/02 02:25:04;;;;;;;;;;;6.00;99.90;;;;;;5096204;28;20006;-58
2022/03/02 02:27:30;;;;;;;;;;;5.90;99.90;;;;;;5087000;28;20345;-57
2022/03/02 02:29:56;;;;;;;;;;;5.90;99.90;;;;;;5075383;28;20422;-57
2022/03/02 02:32:21;;;;;;;;;;;5.90;99.90;;;;;;5075693;28;19909;-57
2022/03/02 02:34:47;;;;;;;;;;;5.90;99.90;;;;;;5075169;28;20302;-57
2022/03/02 02:37:12;;;;;;;;;;;5.90;99.90;;;;;;5080874;28;20006;-58
2022/03/02 02:39:38;;;;;;;;;;;5.90;99.90;;;;;;5086121;28;19928;-57
2022/03/02 02:42:08;;;;;;;;;;;5.90;99.90;;;;;;5074939;28;20379;-57
2022/03/02 02:44:34;;;;;;;;;;;5.90;99.90;;;;;;5075499;28;19908;-57
2022/03/02 02:47:00;;;;;;;;;;;5.90;99.90;;;;;;5078104;28;20235;-57
2022/03/02 02:49:25;;;;;;;;;;;5.90;99.90;;;;;;5095697;28;19916;-57
2022/03/02 02:51:53;;;;;;;;;;;5.90;99.90;;;;;;5095623;28;19908;-57
2022/03/02 02:54:19;;;;;;;;;;;5.90;99.90;;;;;;5095051;28;19908;-57
2022/03/02 02:56:44;;;;;;;;;;;5.90;99.90;;;;;;5094037;28;20509;-57
2022/03/02 02:59:10;;;;;;;;;;;5.90;99.90;;;;;;5094262;28;19916;-57
2022/03/02 03:01:35;;;;;;;;;;;5.90;99.90;;;;;;5094938;28;19912;-57
2022/03/02 03:04:01;;;;;;;;;;;5.80;99.90;;;;;;5095253;28;20282;-57
2022/03/02 03:06:26;;;;;;;;;;;5.80;99.90;;;;;;5095114;28;20006;-57
2022/03/02 03:08:52;;;;;;;;;;;5.80;99.90;;;;;;5078998;28;19916;-57
2022/03/02 03:11:17;;;;;;;;;;;5.80;99.90;;;;;;5074873;28;19954;-57
2022/03/02 03:13:43;;;;;;;;;;;5.80;99.90;;;;;;5074957;28;19909;-57
2022/03/02 03:16:08;;;;;;;;;;;5.80;99.90;;;;;;5074418;28;19908;-57
2022/03/02 03:18:34;;;;;;;;;;;5.70;99.90;;;;;;5086663;28;19919;-57
2022/03/02 03:20:59;;;;;;;;;;;5.70;99.90;;;;;;5095103;28;19919;-57
2022/03/02 03:23:25;;;;;;;;;;;5.70;99.90;;;;;;5094286;28;19908;-57
2022/03/02 03:25:51;;;;;;;;;;;5.70;99.90;;;;;;5095018;28;19950;-57
2022/03/02 03:28:16;;;;;;;;;;;5.70;99.90;;;;;;5085242;28;20356;-57
2022/03/02 03:30:42;;;;;;;;;;;5.70;99.90;;;;;;5073745;28;20294;-57
2022/03/02 03:33:07;;;;;;;;;;;5.70;99.90;;;;;;5074507;28;20385;-57
2022/03/02 03:35:33;;;;;;;;;;;5.60;99.90;;;;;;5074623;28;19908;-58
2022/03/02 03:37:58;;;;;;;;;;;5.70;99.90;;;;;;5080351;28;19955;-57
2022/03/02 03:40:24;;;;;;;;;;;5.60;99.90;;;;;;5094698;28;19924;-57
2022/03/02 03:42:50;;;;;;;;;;;5.60;99.90;;;;;;5094605;28;19912;-57
2022/03/02 03:45:17;;;;;;;;;;;5.60;99.90;;;;;;5094019;28;19908;-57
2022/03/02 03:47:43;;;;;;;;;;;5.70;99.90;;;;;;5089906;28;20308;-57
2022/03/02 03:50:09;;;;;;;;;;;5.70;99.90;;;;;;5073636;28;19915;-58
2022/03/02 03:52:34;;;;;;;;;;;5.70;99.90;;;;;;5074087;28;19912;-57
2022/03/02 03:55:00;;;;;;;;;;;5.70;99.90;;;;;;5074165;28;19916;-57
2022/03/02 03:57:25;;;;;;;;;;;5.70;99.90;;;;;;5073698;28;20006;-57
2022/03/02 03:59:51;;;;;;;;;;;5.70;99.90;;;;;;5073970;28;19917;-57
2022/03/02 04:02:16;;;;;;;;;;;5.70;99.90;;;;;;5073957;28;19977;-57
2022/03/02 04:04:41;;;;;;;;;;;5.70;99.90;;;;;;5073392;28;19909;-57
2022/03/02 04:07:07;;;;;;;;;;;5.60;99.90;;;;;;5073941;28;19930;-57
2022/03/02 04:09:32;;;;;;;;;;;5.60;99.90;;;;;;5092190;28;20374;-57
2022/03/02 04:11:58;;;;;;;;;;;5.60;99.90;;;;;;5093462;28;19960;-57
2022/03/02 04:14:23;;;;;;;;;;;5.60;99.90;;;;;;5094119;28;19996;-56
2022/03/02 04:16:49;;;;;;;;;;;5.60;99.90;;;;;;5094123;28;20045;-57
2022/03/02 04:19:14;;;;;;;;;;;5.60;99.90;;;;;;5091561;28;20065;-57
2022/03/02 04:21:40;;;;;;;;;;;5.60;99.90;;;;;;5093536;28;19916;-57
2022/03/02 04:24:05;;;;;;;;;;;5.60;99.90;;;;;;5093882;28;19915;-57
2022/03/02 04:26:31;;;;;;;;;;;5.60;99.90;;;;;;5093331;28;20484;-57
2022/03/02 04:28:56;;;;;;;;;;;5.60;99.90;;;;;;5079867;28;20283;-57
2022/03/02 04:31:22;;;;;;;;;;;5.50;99.90;;;;;;5073398;28;19920;-58
2022/03/02 04:33:47;;;;;;;;;;;5.50;99.90;;;;;;5073131;28;19915;-57
2022/03/02 04:36:13;;;;;;;;;;;5.50;99.90;;;;;;5073477;28;19991;-57
2022/03/02 04:38:38;;;;;;;;;;;5.50;99.90;;;;;;5084264;28;19962;-58
2022/03/02 04:41:03;;;;;;;;;;;5.50;99.90;;;;;;5092958;28;19952;-58
2022/03/02 04:43:29;;;;;;;;;;;5.50;99.90;;;;;;5093679;28;19908;-57
2022/03/02 04:45:55;;;;;;;;;;;5.50;99.90;;;;;;5093633;28;19908;-57
2022/03/02 04:48:20;;;;;;;;;;;5.50;99.90;;;;;;5085103;28;19913;-57
2022/03/02 04:50:46;;;;;;;;;;;5.40;99.90;;;;;;5073562;28;19953;-57
2022/03/02 04:53:14;;;;;;;;;;;5.50;99.90;;;;;;5073304;28;19908;-58
2022/03/02 04:55:40;;;;;;;;;;;5.40;99.90;;;;;;5072774;28;20050;-57
2022/03/02 04:58:05;;;;;;;;;;;5.40;99.90;;;;;;5092243;28;20447;-58
2022/03/02 05:00:34;;;;;;;;;;;5.40;99.90;;;;;;5092867;28;19916;-57
2022/03/02 05:03:00;;;;;;;;;;;5.40;99.90;;;;;;5093362;28;19966;-57
2022/03/02 05:05:26;;;;;;;;;;;5.40;99.90;;;;;;5093399;28;19909;-57
2022/03/02 05:07:52;;;;;;;;;;;5.40;99.90;;;;;;5075211;28;19918;-58
2022/03/02 05:10:19;;;;;;;;;;;5.30;99.90;;;;;;5073045;28;20259;-57
2022/03/02 05:12:44;;;;;;;;;;;5.30;99.90;;;;;;5073154;28;19959;-57
2022/03/02 05:15:11;;;;;;;;;;;5.30;99.90;;;;;;5072681;28;19913;-57
2022/03/02 05:17:37;;;;;;;;;;;5.30;99.90;;;;;;5087589;28;19912;-57
2022/03/02 05:20:03;;;;;;;;;;;5.30;99.90;;;;;;5094189;28;20003;-57
2022/03/02 05:22:29;;;;;;;;;;;5.20;99.90;;;;;;5096766;28;19908;-57
2022/03/02 05:24:54;;;;;;;;;;;5.20;99.90;;;;;;5097153;28;19915;-57
2022/03/02 05:27:20;;;;;;;;;;;5.20;99.90;;;;;;5095434;28;19974;-57
2022/03/02 05:29:45;;;;;;;;;;;5.20;99.90;;;;;;5096446;28;19927;-57
2022/03/02 05:32:10;;;;;;;;;;;5.20;99.90;;;;;;5097085;28;19908;-57
2022/03/02 05:34:36;;;;;;;;;;;5.10;99.90;;;;;;5097068;28;19912;-57
2022/03/02 05:37:02;;;;;;;;;;;5.10;99.90;;;;;;5086927;28;19939;-57
2022/03/02 05:39:28;;;;;;;;;;;5.10;99.90;;;;;;5076582;28;19918;-57
2022/03/02 05:41:54;;;;;;;;;;;5.00;99.90;;;;;;5076670;28;19961;-57
2022/03/02 05:44:19;;;;;;;;;;;4.90;99.90;;;;;;5076151;28;19916;-57
2022/03/02 05:46:45;;;;;;;;;;;4.80;99.90;;;;;;5083024;28;19990;-57
2022/03/02 05:49:12;;;;;;;;;;;4.80;99.90;;;;;;5096809;28;19908;-57
2022/03/02 05:51:38;;;;;;;;;;;4.70;99.90;;;;;;5096273;28;19908;-56
2022/03/02 05:54:04;;;;;;;;;;;4.60;99.90;;;;;;5096566;28;19914;-57
2022/03/02 05:56:30;;;;;;;;;;;4.60;99.90;;;;;;5094924;28;19912;-57
2022/03/02 05:58:55;;;;;;;;;;;4.50;99.90;;;;;;5095957;28;19958;-57
2022/03/02 06:01:21;;;;;;;;;;;4.50;99.90;;;;;;5096455;28;20328;-57
2022/03/02 06:03:47;;;;;;;;;;;4.40;99.90;;;;;;5095945;28;20377;-57
2022/03/02 06:06:12;;;;;;;;;;;4.40;99.90;;;;;;5095029;28;19908;-57
2022/03/02 06:08:38;;;;;;;;;;;4.30;99.90;;;;;;5076055;28;20293;-57
2022/03/02 06:11:04;;;;;;;;;;;4.20;99.90;;;;;;5075636;28;19912;-57
2022/03/02 06:13:29;;;;;;;;;;;4.20;99.90;;;;;;5076232;28;20360;-58
2022/03/02 06:15:57;;;;;;;;;;;4.10;99.90;;;;;;5076154;28;19969;-57
2022/03/02 06:18:23;;;;;;;;;;;4.10;99.90;;;;;;5094265;28;20355;-57
2022/03/02 06:20:49;;;;;;;;;;;4.00;99.90;;;;;;5096360;28;19924;-57
2022/03/02 06:23:15;;;;;;;;;;;3.90;99.90;;;;;;5096029;28;19915;-58
2022/03/02 06:25:40;;;;;;;;;;;3.90;99.90;;;;;;5095614;28;19908;-56
2022/03/02 06:28:06;;;;;;;;;;;3.90;99.90;;;;;;5079309;28;19992;-57
2022/03/02 06:30:31;;;;;;;;;;;3.90;99.90;;;;;;5075626;28;19956;-57
2022/03/02 06:32:59;;;;;;;;;;;3.80;99.90;;;;;;5073510;28;22374;-57
2022/03/02 06:35:25;;;;;;;;;;;3.80;99.90;;;;;;5082227;28;19912;-57
2022/03/02 06:37:50;;;;;;;;;;;3.80;99.90;;;;;;5095823;28;20286;-57
2022/03/02 06:40:16;;;;;;;;;;;3.80;99.90;;;;;;5095116;28;20365;-57
2022/03/02 06:42:59;;;;;;;;;;;3.80;99.90;;;;;;5095805;28;19931;-57
2022/03/02 06:45:43;;;;;;;;;;;3.80;99.90;;;;;;5089809;28;19943;-58
2022/03/02 06:48:20;;;;;;;;;;;3.70;99.90;;;;;;5074933;28;19954;-57
2022/03/02 06:50:49;;;;;;;;;;;3.70;99.90;;;;;;5083867;28;19919;-57
2022/03/02 06:53:15;;;;;;;;;;;3.70;99.90;;;;;;5111585;28;19926;-58
2022/03/02 06:55:41;;;;;;;;;;;3.60;99.90;;;;;;5111297;28;20002;-57
2022/03/02 06:58:08;;;;;;;;;;;3.60;99.90;;;;;;5094409;28;20002;-58
2022/03/02 07:00:34;;;;;;;;;;;3.60;99.90;;;;;;5094072;28;20026;-57
2022/03/02 07:03:03;;;;;;;;;;;3.60;99.90;;;;;;5094564;28;19955;-57
2022/03/02 07:05:30;;;;;;;;;;;3.60;99.90;;;;;;5094758;28;19908;-57
2022/03/02 07:07:55;;;;;;;;;;;3.60;99.90;;;;;;5094075;28;19993;-56
2022/03/02 07:10:21;;;;;;;;;;;3.50;99.90;;;;;;5094614;28;20347;-57
2022/03/02 07:12:46;;;;;;;;;;;3.60;99.90;;;;;;5085970;28;19918;-57
2022/03/02 07:15:12;;;;;;;;;;;3.60;99.90;;;;;;5104295;28;19953;-57
2022/03/02 07:17:39;;;;;;;;;;;3.70;99.90;;;;;;5115007;28;20010;-57
2022/03/02 07:20:09;;;;;;;;;;;3.70;99.90;;;;;;5114505;28;19923;-58
2022/03/02 07:22:36;;;;;;;;;;;3.80;99.90;;;;;;5114386;28;19908;-57
2022/03/02 07:25:06;;;;;;;;;;;3.80;99.90;;;;;;5092648;28;19982;-57
2022/03/02 07:27:37;;;;;;;;;;;3.90;99.90;;;;;;5114766;28;19914;-57
2022/03/02 07:30:03;;;;;;;;;;;3.90;99.90;;;;;;5103254;28;19920;-57
2022/03/02 07:32:32;;;;;;;;;;;4.00;99.90;;;;;;5094222;28;19912;-57
2022/03/02 07:35:00;;;;;;;;;;;4.00;99.90;;;;;;5094159;28;19915;-57
2022/03/02 07:37:26;;;;;;;;;;;4.10;99.90;;;;;;5093664;28;19915;-57
2022/03/02 07:39:52;;;;;;;;;;;4.10;99.90;;;;;;5094145;28;19939;-58
2022/03/02 07:42:19;;;;;;;;;;;4.20;99.90;;;;;;5104196;28;20351;-57
2022/03/02 07:44:49;;;;;;;;;;;4.20;99.90;;;;;;5114326;28;19908;-57
2022/03/02 07:47:15;;;;;;;;;;;4.30;99.90;;;;;;5114023;28;19911;-57
2022/03/02 07:49:40;;;;;;;;;;;4.40;99.90;;;;;;5113834;28;20300;-57
2022/03/02 07:52:06;;;;;;;;;;;4.40;99.90;;;;;;5113936;28;20351;-57
2022/03/02 07:54:34;;;;;;;;;;;4.40;99.90;;;;;;5090876;28;20367;-57
2022/03/02 07:57:00;;;;;;;;;;;4.50;99.90;;;;;;5088694;28;20394;-56
2022/03/02 07:59:25;;;;;;;;;;;4.60;99.90;;;;;;5093722;28;19963;-57
2022/03/02 08:01:53;;;;;;;;;;;4.60;99.90;;;;;;5093641;28;19908;-57
2022/03/02 08:04:20;;;;;;;;;;;4.70;99.90;;;;;;5093029;28;20346;-57
2022/03/02 08:06:45;;;;;;;;;;;4.80;99.90;;;;;;5093687;28;19908;-57
2022/03/02 08:09:12;;;;;;;;;;;4.80;99.90;;;;;;5093265;28;20000;-57
2022/03/02 08:11:37;;;;;;;;;;;4.90;99.90;;;;;;5092948;28;19947;-57
2022/03/02 08:14:04;;;;;;;;;;;5.00;99.90;;;;;;5093270;28;20333;-57
2022/03/02 08:16:29;;;;;;;;;;;5.10;99.90;;;;;;5093388;28;19908;-57
2022/03/02 08:18:56;;;;;;;;;;;5.20;99.90;;;;;;5104173;28;19960;-57
2022/03/02 08:21:22;;;;;;;;;;;5.30;99.90;;;;;;5113519;28;19912;-57
2022/03/02 08:23:49;;;;;;;;;;;5.40;99.90;;;;;;5113582;28;19907;-58
2022/03/02 08:26:18;;;;;;;;;;;5.50;99.90;;;;;;5102516;28;19908;-57
2022/03/02 08:28:43;;;;;;;;;;;5.60;99.90;;;;;;5092074;28;20015;-57
2022/03/02 08:31:10;;;;;;;;;;;5.70;99.90;;;;;;5091884;28;20070;-58
2022/03/02 08:33:36;;;;;;;;;;;5.80;99.90;;;;;;5091880;28;19908;-57
2022/03/02 08:36:02;;;;;;;;;;;5.90;99.90;;;;;;5088068;28;20384;-57
2022/03/02 08:38:27;;;;;;;;;;;6.00;99.90;;;;;;5090096;28;19950;-58
2022/03/02 08:40:53;;;;;;;;;;;6.00;99.90;;;;;;5076113;28;19920;-57
2022/03/02 08:43:18;;;;;;;;;;;6.10;99.90;;;;;;5092500;28;19966;-57
2022/03/02 08:45:48;;;;;;;;;;;6.10;99.90;;;;;;5091786;28;20298;-58
2022/03/02 08:48:14;;;;;;;;;;;6.20;99.90;;;;;;5092065;28;19912;-58
2022/03/02 08:50:40;;;;;;;;;;;6.20;99.90;;;;;;5088312;28;19920;-57
2022/03/02 08:53:06;;;;;;;;;;;6.30;99.90;;;;;;5091384;28;19908;-58
2022/03/02 08:55:32;;;;;;;;;;;6.40;99.90;;;;;;5092282;28;19908;-58
2022/03/02 08:57:58;;;;;;;;;;;6.50;99.90;;;;;;5092896;28;19965;-58
2022/03/02 09:00:24;;;;;;;;;;;6.50;99.90;;;;;;5088642;28;19927;-57
2022/03/02 09:02:51;;;;;;;;;;;6.60;99.90;;;;;;5072696;28;19917;-57
2022/03/02 09:05:17;;;;;;;;;;;6.60;99.90;;;;;;5090501;28;19923;-57
2022/03/02 09:07:43;;;;;;;;;;;6.70;99.90;;;;;;5091529;28;19975;-57
2022/03/02 09:10:08;;;;;;;;;;;6.80;99.90;;;;;;5088869;28;20380;-57
2022/03/02 09:12:34;;;;;;;;;;;6.80;99.90;;;;;;5092006;28;19908;-57
2022/03/02 09:15:00;;;;;;;;;;;6.90;99.90;;;;;;5091377;28;19908;-57
2022/03/02 09:17:25;;;;;;;;;;;6.90;99.90;;;;;;5092009;28;19908;-57
2022/03/02 09:19:51;;;;;;;;;;;7.00;99.90;;;;;;5088975;28;19921;-58
2022/03/02 09:22:17;;;;;;;;;;;7.10;99.90;;;;;;5091196;28;20034;-58
2022/03/02 09:24:44;;;;;;;;;;;7.20;99.90;;;;;;5092449;28;19908;-57
2022/03/02 09:27:11;;;;;;;;;;;7.30;99.90;;;;;;5092395;28;20370;-57
2022/03/02 09:29:39;;;;;;;;;;;7.30;99.90;;;;;;5079132;28;20363;-57
2022/03/02 09:32:05;;;;;;;;;;;7.40;99.90;;;;;;5072020;28;19908;-58
2022/03/02 09:34:32;;;;;;;;;;;7.50;99.90;;;;;;5080373;28;19963;-57
2022/03/02 09:36:59;;;;;;;;;;;7.50;99.90;;;;;;5088598;28;20435;-58
2022/03/02 09:39:25;;;;;;;;;;;7.50;99.90;;;;;;5091157;28;19920;-57
2022/03/02 09:41:59;;;;;;;;;;;7.60;99.90;;;;;;5091257;28;19908;-57
2022/03/02 09:44:30;;;;;;;;;;;7.70;99.90;;;;;;5078607;28;20053;-58
2022/03/02 09:46:56;;;;;;;;;;;7.70;99.90;;;;;;5091765;28;19919;-58
2022/03/02 09:49:23;;;;;;;;;;;7.80;99.90;;;;;;5090923;28;19955;-57
2022/03/02 09:51:57;;;;;;;;;;;7.90;99.90;;;;;;5092402;28;20250;-57
2022/03/02 09:54:22;;;;;;;;;;;8.00;99.90;;;;;;5092624;28;19908;-57
2022/03/02 09:56:49;;;;;;;;;;;8.10;99.90;;;;;;5091717;28;19914;-57
2022/03/02 09:59:17;;;;;;;;;;;8.20;99.90;;;;;;5090546;28;19966;-57
2022/03/02 10:01:43;;;;;;;;;;;8.20;99.90;;;;;;5096216;28;20000;-57
2022/03/02 10:04:21;;;;;;;;;;;8.30;99.90;;;;;;5090772;28;19908;-58
2022/03/02 10:06:47;;;;;;;;;;;8.40;99.90;;;;;;5092111;28;19912;-58
2022/03/02 10:09:13;;;;;;;;;;;8.60;99.90;;;;;;5093765;28;19916;-58
2022/03/02 10:11:43;;;;;;;;;;;8.60;99.90;;;;;;5094834;28;19908;-58
2022/03/02 10:14:08;;;;;;;;;;;8.70;99.90;;;;;;5095133;28;19912;-58
2022/03/02 10:16:40;;;;;;;;;;;8.80;99.90;;;;;;5095136;28;20007;-57
2022/03/02 10:19:06;;;;;;;;;;;8.90;99.90;;;;;;5094911;28;19919;-58
2022/03/02 10:21:33;;;;;;;;;;;9.00;99.90;;;;;;5095588;28;19912;-57
2022/03/02 10:24:02;;;;;;;;;;;9.00;99.90;;;;;;5093760;28;19912;-57
2022/03/02 10:26:29;;;;;;;;;;;9.10;99.90;;;;;;5094266;28;19954;-57
2022/03/02 10:29:00;;;;;;;;;;;9.10;99.10;;;;;;5074708;28;20339;-58
2022/03/02 10:31:37;;;;;;;;;;;9.20;99.90;;;;;;5074031;28;19924;-57
2022/03/02 10:34:06;;;;;;;;;;;9.30;99.90;;;;;;5085408;28;19982;-57
2022/03/02 10:36:33;;;;;;;;;;;9.30;99.90;;;;;;5091707;28;19908;-58
2022/03/02 10:38:59;;;;;;;;;;;9.50;99.90;;;;;;5091810;28;20001;-57
2022/03/02 10:41:25;;;;;;;;;;;9.50;99.90;;;;;;5093749;28;19962;-58
2022/03/02 10:43:58;;;;;;;;;;;9.60;99.90;;;;;;5094650;28;20327;-58
2022/03/02 10:46:25;;;;;;;;;;;9.70;99.90;;;;;;5094202;28;19954;-57
2022/03/02 10:49:14;;;;;;;;;;;9.70;99.40;;;;;;5092645;28;19916;-58
2022/03/02 10:51:39;;;;;;;;;;;9.70;99.90;;;;;;5092365;28;19908;-58
2022/03/02 10:54:06;;;;;;;;;;;9.80;95.00;;;;;;5086946;28;20295;-57
2022/03/02 10:56:42;;;;;;;;;;;9.90;96.80;;;;;;5074711;28;19971;-58
2022/03/02 10:59:10;;;;;;;;;;;9.90;96.80;;;;;;5073940;28;19967;-57
2022/03/02 11:01:36;;;;;;;;;;;10.00;96.40;;;;;;5074514;28;19912;-57
2022/03/02 11:04:02;;;;;;;;;;;9.90;92.40;;;;;;5074450;28;19908;-58
2022/03/02 11:06:28;;;;;;;;;;;10.00;93.20;;;;;;5073947;28;20040;-57
2022/03/02 11:08:55;;;;;;;;;;;10.00;93.30;;;;;;5082506;28;19934;-57
2022/03/02 11:11:20;;;;;;;;;;;10.10;87.30;;;;;;5094708;28;20007;-57
2022/03/02 11:13:49;;;;;;;;;;;10.00;85.80;;;;;;5093971;28;19951;-58
2022/03/02 11:16:18;;;;;;;;;;;10.10;90.60;;;;;;5094394;28;19952;-58
2022/03/02 11:18:50;;;;;;;;;;;10.20;92.40;;;;;;5086143;28;19940;-58
2022/03/02 11:21:21;;;;;;;;;;;10.40;90.80;;;;;;5074676;28;19935;-58
2022/03/02 11:23:48;;;;;;;;;;;10.50;85.00;;;;;;5094173;28;19912;-58
2022/03/02 11:26:16;;;;;;;;;;;10.60;94.40;;;;;;5093684;28;19916;-57
2022/03/02 11:28:47;;;;;;;;;;;10.70;94.70;;;;;;5087173;28;19999;-58
2022/03/02 11:31:16;;;;;;;;;;;10.70;90.40;;;;;;5093297;28;19920;-58
2022/03/02 11:33:42;;;;;;;;;;;10.80;90.80;;;;;;5094241;28;19916;-58
2022/03/02 11:36:09;;;;;;;;;;;10.90;91.70;;;;;;5093428;28;19919;-57
2022/03/02 11:38:34;;;;;;;;;;;11.00;94.70;;;;;;5086198;28;19931;-58
2022/03/02 11:41:00;;;;;;;;;;;11.00;84.50;;;;;;5073480;28;20347;-58
2022/03/02 11:43:28;;;;;;;;;;;11.00;73.70;;;;;;5073240;28;19959;-58
2022/03/02 11:46:01;;;;;;;;;;;11.10;87.50;;;;;;5073456;28;20374;-58
2022/03/02 11:48:39;;;;;;;;;;;11.20;75.90;;;;;;5074211;28;19908;-58
2022/03/02 11:51:04;;;;;;;;;;;11.10;72.40;;;;;;5073502;28;19913;-58
2022/03/02 11:53:35;;;;;;;;;;;11.20;75.90;;;;;;5073665;28;19909;-58
2022/03/02 11:56:01;;;;;;;;;;;11.20;81.60;;;;;;5072703;28;19915;-58
2022/03/02 11:58:26;;;;;;;;;;;11.30;74.10;;;;;;5081845;28;19957;-58
2022/03/02 12:00:52;;;;;;;;;;;11.20;69.30;;;;;;5092725;28;20359;-58
2022/03/02 12:03:18;;;;;;;;;;;11.20;71.50;;;;;;5092623;28;19920;-57
2022/03/02 12:05:44;;;;;;;;;;;11.30;76.80;;;;;;5092168;28;20003;-57
2022/03/02 12:08:13;;;;;;;;;;;11.40;79.10;;;;;;5091372;28;19916;-57
2022/03/02 12:10:39;;;;;;;;;;;11.50;76.70;;;;;;5092254;28;19966;-58
2022/03/02 12:13:05;;;;;;;;;;;11.60;80.00;;;;;;5092735;28;19908;-57
2022/03/02 12:15:43;;;;;;;;;;;11.60;73.70;;;;;;5093458;28;20437;-57
2022/03/02 12:18:10;;;;;;;;;;;11.80;79.70;;;;;;5091889;28;19962;-56
2022/03/02 12:20:45;;;;;;;;;;;11.70;70.10;;;;;;5093375;28;19924;-57
2022/03/02 12:23:11;;;;;;;;;;;11.70;69.40;;;;;;5093196;28;20028;-58
2022/03/02 12:25:42;;;;;;;;;;;11.60;71.20;;;;;;5082686;28;19962;-58
2022/03/02 12:28:09;;;;;;;;;;;11.60;68.40;;;;;;5072678;28;20364;-58
2022/03/02 12:30:36;;;;;;;;;;;11.70;67.80;;;;;;5071643;28;19974;-58
2022/03/02 12:33:04;;;;;;;;;;;11.60;66.00;;;;;;5072710;28;19912;-57
2022/03/02 12:35:30;;;;;;;;;;;11.70;67.70;;;;;;5080712;28;19934;-58
2022/03/02 12:37:56;;;;;;;;;;;11.70;68.90;;;;;;5092337;28;20430;-58
2022/03/02 12:40:24;;;;;;;;;;;11.70;66.40;;;;;;5092982;28;19916;-57
2022/03/02 12:42:51;;;;;;;;;;;11.70;64.00;;;;;;5092882;28;19969;-57
2022/03/02 12:45:18;;;;;;;;;;;11.80;70.60;;;;;;5071997;28;19951;-58
2022/03/02 12:47:44;;;;;;;;;;;11.90;69.40;;;;;;5072531;28;20343;-57
2022/03/02 12:50:11;;;;;;;;;;;12.00;69.10;;;;;;5072197;28;19919;-57
2022/03/02 12:52:36;;;;;;;;;;;12.00;65.80;;;;;;5072351;28;20002;-57
2022/03/02 12:55:04;;;;;;;;;;;12.00;64.30;;;;;;5089947;28;19924;-58
2022/03/02 12:57:31;;;;;;;;;;;12.00;66.00;;;;;;5092728;28;20317;-57
2022/03/02 12:59:58;;;;;;;;;;;11.90;63.10;;;;;;5092155;28;19916;-58
2022/03/02 13:02:25;;;;;;;;;;;12.00;65.10;;;;;;5092870;28;19909;-57
2022/03/02 13:05:09;;;;;;;;;;;12.00;66.10;;;;;;5090808;28;19998;-58
2022/03/02 13:07:34;;;;;;;;;;;12.00;65.40;;;;;;5092375;28;20089;-57
2022/03/02 13:10:02;;;;;;;;;;;12.00;63.70;;;;;;5092458;28;20386;-57
2022/03/02 13:12:29;;;;;;;;;;;12.20;67.10;;;;;;5092703;28;19916;-58
2022/03/02 13:14:55;;;;;;;;;;;12.40;71.30;;;;;;5076818;28;19912;-58
2022/03/02 13:17:22;;;;;;;;;;;12.40;65.30;;;;;;5072558;28;19913;-57
2022/03/02 13:19:48;;;;;;;;;;;12.50;63.50;;;;;;5071629;28;20355;-57
2022/03/02 13:22:33;;;;;;;;;;;12.50;64.90;;;;;;5077011;28;19919;-58
2022/03/02 13:25:04;;;;;;;;;;;12.60;63.70;;;;;;5064538;28;19916;-57
2022/03/02 13:27:30;;;;;;;;;;;12.70;64.60;;;;;;5072018;28;19916;-57
2022/03/02 13:29:55;;;;;;;;;;;12.80;60.20;;;;;;5071827;28;19924;-58
2022/03/02 13:32:21;;;;;;;;;;;12.80;62.80;;;;;;5083316;28;19995;-58
2022/03/02 13:35:07;;;;;;;;;;;13.10;63.40;;;;;;5071823;28;19909;-57
2022/03/02 13:37:51;;;;;;;;;;;13.40;61.70;;;;;;5082368;28;19918;-57
2022/03/02 13:40:35;;;;;;;;;;;13.70;60.20;;;;;;5091515;28;20277;-58
2022/03/02 13:43:06;;;;;;;;;;;13.90;59.80;;;;;;5077402;28;19912;-57
2022/03/02 13:45:35;;;;;;;;;;;14.00;56.30;;;;;;5075852;28;19983;-58
2022/03/02 13:48:14;;;;;;;;;;;14.00;56.80;;;;;;5080793;28;19957;-58
2022/03/02 13:50:58;;;;;;;;;;;14.10;60.60;;;;;;5084081;28;19916;-57
2022/03/02 13:53:33;;;;;;;;;;;14.10;57.10;;;;;;5116652;28;19915;-57
2022/03/02 13:56:07;;;;;;;;;;;14.40;61.40;;;;;;5101528;28;20045;-57
2022/03/02 13:58:33;;;;;;;;;;;14.60;58.60;;;;;;5089522;28;19912;-57
2022/03/02 14:01:11;;;;;;;;;;;14.70;55.10;;;;;;5084265;28;19924;-58
2022/03/02 14:03:43;;;;;;;;;;;14.70;51.70;;;;;;5092254;28;19912;-58
2022/03/02 14:06:12;;;;;;;;;;;14.80;55.80;;;;;;5095401;28;19966;-58
2022/03/02 14:08:42;;;;;;;;;;;14.90;52.80;;;;;;5088898;28;20465;-57
2022/03/02 14:11:07;;;;;;;;;;;15.00;52.70;;;;;;5093585;28;20011;-57
2022/03/02 14:13:33;;;;;;;;;;;15.10;52.40;;;;;;5094719;28;19995;-57
2022/03/02 14:16:06;;;;;;;;;;;15.20;52.90;;;;;;5116000;28;19912;-58
2022/03/02 14:18:31;;;;;;;;;;;15.40;54.60;;;;;;5116097;28;19953;-58
2022/03/02 14:20:57;;;;;;;;;;;15.60;51.90;;;;;;5115655;28;20006;-57
2022/03/02 14:23:22;;;;;;;;;;;15.70;52.50;;;;;;5115339;28;20397;-58
2022/03/02 14:25:52;;;;;;;;;;;15.90;52.80;;;;;;5114668;28;20054;-57